sensor_id;sensor_type;location;lat;lon;timestamp;P1;durP1;ratioP1;P2;durP2;ratioP2
9005;SDS011;62284;50.702;7.140;2022-08-19T00:01:34;6.40;;;6.00;;
9005;SDS011;62284;50.702;7.140;2022-08-19T00:04:04;6.53;;;6.03;;
9005;SDS011;62284;50.702;7.140;2022-08-19T00:06:33;6.30;;;5.80;;
9005;SDS011;62284;50.702;7.140;2022-08-19T00:09:03;6.60;;;6.10;;
9005;SDS011;62284;50.702;7.140;2022-08-19T00:11:34;8.13;;;7.50;;
9005;SDS011;62284;50.702;7.140;2022-08-19T00:14:03;7.72;;;7.22;;
9005;SDS011;62284;50.702;7.140;2022-08-19T00:16:31;7.88;;;7.28;;
9005;SDS011;62284;50.702;7.140;2022-08-19T00:18:58;8.18;;;7.57;;
9005;SDS011;62284;50.702;7.140;2022-08-19T00:21:25;7.63;;;7.13;;
9005;SDS011;62284;50.702;7.140;2022-08-19T00:23:53;8.15;;;7.53;;
9005;SDS011;62284;50.702;7.140;2022-08-19T00:26:23;7.65;;;7.15;;
9005;SDS011;62284;50.702;7.140;2022-08-19T00:28:51;7.85;;;7.32;;
9005;SDS011;62284;50.702;7.140;2022-08-19T00:31:18;8.27;;;7.68;;
9005;SDS011;62284;50.702;7.140;2022-08-19T00:33:46;8.35;;;7.72;;
9005;SDS011;62284;50.702;7.140;2022-08-19T00:36:14;7.63;;;7.10;;
9005;SDS011;62284;50.702;7.140;2022-08-19T00:38:41;7.63;;;7.05;;
9005;SDS011;62284;50.702;7.140;2022-08-19T00:41:08;7.60;;;7.10;;
9005;SDS011;62284;50.702;7.140;2022-08-19T00:43:36;7.20;;;6.70;;
9005;SDS011;62284;50.702;7.140;2022-08-19T00:46:05;8.15;;;7.55;;
9005;SDS011;62284;50.702;7.140;2022-08-19T00:48:32;7.32;;;6.82;;
9005;SDS011;62284;50.702;7.140;2022-08-19T00:51:01;7.95;;;7.38;;
9005;SDS011;62284;50.702;7.140;2022-08-19T00:53:30;7.78;;;7.07;;
9005;SDS011;62284;50.702;7.140;2022-08-19T00:55:59;7.47;;;6.97;;
9005;SDS011;62284;50.702;7.140;2022-08-19T00:58:32;7.38;;;6.80;;
9005;SDS011;62284;50.702;7.140;2022-08-19T01:01:00;7.78;;;7.28;;
9005;SDS011;62284;50.702;7.140;2022-08-19T01:03:29;7.35;;;6.82;;
9005;SDS011;62284;50.702;7.140;2022-08-19T01:05:56;6.90;;;6.30;;
9005;SDS011;62284;50.702;7.140;2022-08-19T01:08:23;7.38;;;6.75;;
9005;SDS011;62284;50.702;7.140;2022-08-19T01:10:51;7.10;;;6.60;;
9005;SDS011;62284;50.702;7.140;2022-08-19T01:13:21;7.30;;;6.60;;
9005;SDS011;62284;50.702;7.140;2022-08-19T01:15:51;7.20;;;6.70;;
9005;SDS011;62284;50.702;7.140;2022-08-19T01:18:21;7.40;;;6.80;;
9005;SDS011;62284;50.702;7.140;2022-08-19T01:20:51;6.75;;;6.20;;
9005;SDS011;62284;50.702;7.140;2022-08-19T01:23:21;7.05;;;6.55;;
9005;SDS011;62284;50.702;7.140;2022-08-19T01:26:07;7.60;;;7.00;;
9005;SDS011;62284;50.702;7.140;2022-08-19T01:28:36;7.95;;;7.45;;
9005;SDS011;62284;50.702;7.140;2022-08-19T01:31:03;7.43;;;6.93;;
9005;SDS011;62284;50.702;7.140;2022-08-19T01:33:30;7.43;;;6.82;;
9005;SDS011;62284;50.702;7.140;2022-08-19T01:36:03;6.95;;;6.43;;
9005;SDS011;62284;50.702;7.140;2022-08-19T01:38:34;7.90;;;7.40;;
9005;SDS011;62284;50.702;7.140;2022-08-19T01:41:03;7.03;;;6.53;;
9005;SDS011;62284;50.702;7.140;2022-08-19T01:43:31;7.32;;;6.82;;
9005;SDS011;62284;50.702;7.140;2022-08-19T01:45:58;7.32;;;6.82;;
9005;SDS011;62284;50.702;7.140;2022-08-19T01:48:25;7.22;;;6.72;;
9005;SDS011;62284;50.702;7.140;2022-08-19T01:50:54;7.40;;;6.80;;
9005;SDS011;62284;50.702;7.140;2022-08-19T01:53:21;7.60;;;7.10;;
9005;SDS011;62284;50.702;7.140;2022-08-19T01:55:49;7.25;;;6.75;;
9005;SDS011;62284;50.702;7.140;2022-08-19T01:58:17;7.35;;;6.80;;
9005;SDS011;62284;50.702;7.140;2022-08-19T02:00:46;7.30;;;6.70;;
9005;SDS011;62284;50.702;7.140;2022-08-19T02:03:14;7.30;;;6.60;;
9005;SDS011;62284;50.702;7.140;2022-08-19T02:05:42;7.10;;;6.63;;
9005;SDS011;62284;50.702;7.140;2022-08-19T02:08:10;7.75;;;7.10;;
9005;SDS011;62284;50.702;7.140;2022-08-19T02:10:38;7.43;;;6.85;;
9005;SDS011;62284;50.702;7.140;2022-08-19T02:13:08;7.40;;;6.90;;
9005;SDS011;62284;50.702;7.140;2022-08-19T02:15:35;6.95;;;6.55;;
9005;SDS011;62284;50.702;7.140;2022-08-19T02:18:02;7.50;;;7.00;;
9005;SDS011;62284;50.702;7.140;2022-08-19T02:20:30;8.05;;;7.45;;
9005;SDS011;62284;50.702;7.140;2022-08-19T02:22:57;7.18;;;6.60;;
9005;SDS011;62284;50.702;7.140;2022-08-19T02:25:25;7.70;;;7.20;;
9005;SDS011;62284;50.702;7.140;2022-08-19T02:27:53;6.97;;;6.47;;
9005;SDS011;62284;50.702;7.140;2022-08-19T02:30:21;8.23;;;7.65;;
9005;SDS011;62284;50.702;7.140;2022-08-19T02:32:49;7.57;;;7.03;;
9005;SDS011;62284;50.702;7.140;2022-08-19T02:35:17;7.65;;;7.05;;
9005;SDS011;62284;50.702;7.140;2022-08-19T02:37:44;7.57;;;7.07;;
9005;SDS011;62284;50.702;7.140;2022-08-19T02:40:48;7.97;;;7.40;;
9005;SDS011;62284;50.702;7.140;2022-08-19T02:43:16;8.02;;;7.43;;
9005;SDS011;62284;50.702;7.140;2022-08-19T02:45:46;7.93;;;7.43;;
9005;SDS011;62284;50.702;7.140;2022-08-19T02:48:14;7.60;;;7.10;;
9005;SDS011;62284;50.702;7.140;2022-08-19T02:50:42;8.02;;;7.43;;
9005;SDS011;62284;50.702;7.140;2022-08-19T02:53:09;7.57;;;7.07;;
9005;SDS011;62284;50.702;7.140;2022-08-19T02:55:41;7.57;;;7.07;;
9005;SDS011;62284;50.702;7.140;2022-08-19T02:58:10;7.90;;;7.30;;
9005;SDS011;62284;50.702;7.140;2022-08-19T03:00:40;7.28;;;6.68;;
9005;SDS011;62284;50.702;7.140;2022-08-19T03:03:10;7.47;;;7.00;;
9005;SDS011;62284;50.702;7.140;2022-08-19T03:05:38;7.53;;;7.03;;
9005;SDS011;62284;50.702;7.140;2022-08-19T03:08:05;7.85;;;7.35;;
9005;SDS011;62284;50.702;7.140;2022-08-19T03:10:39;7.78;;;7.18;;
9005;SDS011;62284;50.702;7.140;2022-08-19T03:13:09;7.75;;;7.15;;
9005;SDS011;62284;50.702;7.140;2022-08-19T03:15:39;9.20;;;8.60;;
9005;SDS011;62284;50.702;7.140;2022-08-19T03:18:07;8.95;;;8.35;;
9005;SDS011;62284;50.702;7.140;2022-08-19T03:20:40;9.30;;;8.60;;
9005;SDS011;62284;50.702;7.140;2022-08-19T03:23:08;9.52;;;8.93;;
9005;SDS011;62284;50.702;7.140;2022-08-19T03:25:37;8.68;;;8.07;;
9005;SDS011;62284;50.702;7.140;2022-08-19T03:28:06;8.77;;;8.18;;
9005;SDS011;62284;50.702;7.140;2022-08-19T03:30:33;9.38;;;8.68;;
9005;SDS011;62284;50.702;7.140;2022-08-19T03:33:00;8.95;;;8.35;;
9005;SDS011;62284;50.702;7.140;2022-08-19T03:35:27;9.27;;;8.57;;
9005;SDS011;62284;50.702;7.140;2022-08-19T03:37:56;8.73;;;8.02;;
9005;SDS011;62284;50.702;7.140;2022-08-19T03:40:25;8.90;;;8.30;;
9005;SDS011;62284;50.702;7.140;2022-08-19T03:42:54;8.68;;;7.97;;
9005;SDS011;62284;50.702;7.140;2022-08-19T03:45:21;9.52;;;8.82;;
9005;SDS011;62284;50.702;7.140;2022-08-19T03:47:48;9.80;;;9.10;;
9005;SDS011;62284;50.702;7.140;2022-08-19T03:50:15;9.25;;;8.65;;
9005;SDS011;62284;50.702;7.140;2022-08-19T03:52:47;8.68;;;8.18;;
9005;SDS011;62284;50.702;7.140;2022-08-19T03:55:16;9.50;;;8.80;;
9005;SDS011;62284;50.702;7.140;2022-08-19T03:57:44;9.35;;;8.73;;
9005;SDS011;62284;50.702;7.140;2022-08-19T04:00:13;8.10;;;7.60;;
9005;SDS011;62284;50.702;7.140;2022-08-19T04:02:40;8.80;;;8.10;;
9005;SDS011;62284;50.702;7.140;2022-08-19T04:05:08;8.82;;;8.32;;
9005;SDS011;62284;50.702;7.140;2022-08-19T04:07:35;8.68;;;8.07;;
9005;SDS011;62284;50.702;7.140;2022-08-19T04:10:03;7.78;;;7.32;;
9005;SDS011;62284;50.702;7.140;2022-08-19T04:12:32;8.38;;;7.78;;
9005;SDS011;62284;50.702;7.140;2022-08-19T04:14:58;8.63;;;8.13;;
9005;SDS011;62284;50.702;7.140;2022-08-19T04:17:25;8.10;;;7.60;;
9005;SDS011;62284;50.702;7.140;2022-08-19T04:19:52;9.00;;;8.40;;
9005;SDS011;62284;50.702;7.140;2022-08-19T04:22:19;8.95;;;8.40;;
9005;SDS011;62284;50.702;7.140;2022-08-19T04:24:46;9.02;;;8.40;;
9005;SDS011;62284;50.702;7.140;2022-08-19T04:27:13;9.32;;;8.70;;
9005;SDS011;62284;50.702;7.140;2022-08-19T04:29:42;9.23;;;8.60;;
9005;SDS011;62284;50.702;7.140;2022-08-19T04:32:09;9.25;;;8.65;;
9005;SDS011;62284;50.702;7.140;2022-08-19T04:34:36;9.23;;;8.52;;
9005;SDS011;62284;50.702;7.140;2022-08-19T04:37:04;8.88;;;8.30;;
9005;SDS011;62284;50.702;7.140;2022-08-19T04:39:37;8.98;;;8.35;;
9005;SDS011;62284;50.702;7.140;2022-08-19T04:42:22;9.10;;;8.50;;
9005;SDS011;62284;50.702;7.140;2022-08-19T04:45:10;8.02;;;7.47;;
9005;SDS011;62284;50.702;7.140;2022-08-19T04:47:39;8.32;;;7.72;;
9005;SDS011;62284;50.702;7.140;2022-08-19T04:50:09;8.93;;;8.30;;
9005;SDS011;62284;50.702;7.140;2022-08-19T04:52:36;8.43;;;7.82;;
9005;SDS011;62284;50.702;7.140;2022-08-19T04:55:04;8.98;;;8.38;;
9005;SDS011;62284;50.702;7.140;2022-08-19T04:57:32;8.70;;;8.10;;
9005;SDS011;62284;50.702;7.140;2022-08-19T04:59:59;8.02;;;7.43;;
9005;SDS011;62284;50.702;7.140;2022-08-19T05:02:27;9.35;;;8.80;;
9005;SDS011;62284;50.702;7.140;2022-08-19T05:04:56;8.57;;;8.07;;
9005;SDS011;62284;50.702;7.140;2022-08-19T05:07:25;9.50;;;8.80;;
9005;SDS011;62284;50.702;7.140;2022-08-19T05:09:52;9.20;;;8.60;;
9005;SDS011;62284;50.702;7.140;2022-08-19T05:12:20;8.93;;;8.35;;
9005;SDS011;62284;50.702;7.140;2022-08-19T05:14:47;9.75;;;9.00;;
9005;SDS011;62284;50.702;7.140;2022-08-19T05:17:14;9.45;;;8.70;;
9005;SDS011;62284;50.702;7.140;2022-08-19T05:19:43;9.20;;;8.50;;
9005;SDS011;62284;50.702;7.140;2022-08-19T05:22:27;9.88;;;8.98;;
9005;SDS011;62284;50.702;7.140;2022-08-19T05:25:01;8.98;;;8.45;;
9005;SDS011;62284;50.702;7.140;2022-08-19T05:27:31;8.77;;;8.20;;
9005;SDS011;62284;50.702;7.140;2022-08-19T05:29:58;9.82;;;9.13;;
9005;SDS011;62284;50.702;7.140;2022-08-19T05:32:26;9.32;;;8.73;;
9005;SDS011;62284;50.702;7.140;2022-08-19T05:34:55;8.95;;;8.35;;
9005;SDS011;62284;50.702;7.140;2022-08-19T05:37:22;9.60;;;8.85;;
9005;SDS011;62284;50.702;7.140;2022-08-19T05:39:51;9.52;;;8.90;;
9005;SDS011;62284;50.702;7.140;2022-08-19T05:42:19;10.07;;;9.27;;
9005;SDS011;62284;50.702;7.140;2022-08-19T05:44:48;11.20;;;10.40;;
9005;SDS011;62284;50.702;7.140;2022-08-19T05:47:15;10.48;;;9.77;;
9005;SDS011;62284;50.702;7.140;2022-08-19T05:49:44;10.90;;;10.20;;
9005;SDS011;62284;50.702;7.140;2022-08-19T05:52:13;11.77;;;10.88;;
9005;SDS011;62284;50.702;7.140;2022-08-19T05:54:41;11.80;;;10.93;;
9005;SDS011;62284;50.702;7.140;2022-08-19T05:57:10;13.05;;;12.15;;
9005;SDS011;62284;50.702;7.140;2022-08-19T05:59:37;12.88;;;12.07;;
9005;SDS011;62284;50.702;7.140;2022-08-19T06:02:04;13.05;;;12.02;;
9005;SDS011;62284;50.702;7.140;2022-08-19T06:04:32;14.38;;;13.27;;
9005;SDS011;62284;50.702;7.140;2022-08-19T06:07:00;17.33;;;16.13;;
9005;SDS011;62284;50.702;7.140;2022-08-19T06:09:29;13.90;;;13.00;;
9005;SDS011;62284;50.702;7.140;2022-08-19T06:11:57;14.43;;;13.52;;
9005;SDS011;62284;50.702;7.140;2022-08-19T06:14:26;15.18;;;14.18;;
9005;SDS011;62284;50.702;7.140;2022-08-19T06:16:55;16.15;;;15.05;;
9005;SDS011;62284;50.702;7.140;2022-08-19T06:19:22;18.52;;;17.25;;
9005;SDS011;62284;50.702;7.140;2022-08-19T06:21:51;21.95;;;20.45;;
9005;SDS011;62284;50.702;7.140;2022-08-19T06:24:19;24.13;;;22.42;;
9005;SDS011;62284;50.702;7.140;2022-08-19T06:26:51;25.85;;;24.13;;
9005;SDS011;62284;50.702;7.140;2022-08-19T06:29:19;23.73;;;22.13;;
9005;SDS011;62284;50.702;7.140;2022-08-19T06:31:49;24.50;;;22.73;;
9005;SDS011;62284;50.702;7.140;2022-08-19T06:34:17;22.98;;;21.40;;
9005;SDS011;62284;50.702;7.140;2022-08-19T06:36:45;23.65;;;22.00;;
9005;SDS011;62284;50.702;7.140;2022-08-19T06:39:15;21.23;;;19.83;;
9005;SDS011;62284;50.702;7.140;2022-08-19T06:41:44;22.52;;;20.92;;
9005;SDS011;62284;50.702;7.140;2022-08-19T06:44:14;25.10;;;23.33;;
9005;SDS011;62284;50.702;7.140;2022-08-19T06:46:42;26.50;;;24.60;;
9005;SDS011;62284;50.702;7.140;2022-08-19T06:49:09;22.45;;;20.90;;
9005;SDS011;62284;50.702;7.140;2022-08-19T06:51:39;23.48;;;21.88;;
9005;SDS011;62284;50.702;7.140;2022-08-19T06:54:07;24.38;;;22.35;;
9005;SDS011;62284;50.702;7.140;2022-08-19T06:56:37;25.50;;;23.48;;
9005;SDS011;62284;50.702;7.140;2022-08-19T06:59:05;25.60;;;23.60;;
9005;SDS011;62284;50.702;7.140;2022-08-19T07:01:38;28.02;;;25.95;;
9005;SDS011;62284;50.702;7.140;2022-08-19T07:04:07;23.60;;;21.90;;
9005;SDS011;62284;50.702;7.140;2022-08-19T07:06:35;24.10;;;22.33;;
9005;SDS011;62284;50.702;7.140;2022-08-19T07:09:03;23.02;;;21.38;;
9005;SDS011;62284;50.702;7.140;2022-08-19T07:11:30;25.30;;;23.45;;
9005;SDS011;62284;50.702;7.140;2022-08-19T07:13:58;23.80;;;22.10;;
9005;SDS011;62284;50.702;7.140;2022-08-19T07:16:25;24.00;;;22.27;;
9005;SDS011;62284;50.702;7.140;2022-08-19T07:18:54;23.55;;;21.75;;
9005;SDS011;62284;50.702;7.140;2022-08-19T07:21:22;23.80;;;21.83;;
9005;SDS011;62284;50.702;7.140;2022-08-19T07:23:53;25.55;;;23.55;;
9005;SDS011;62284;50.702;7.140;2022-08-19T07:26:21;25.25;;;23.38;;
9005;SDS011;62284;50.702;7.140;2022-08-19T07:28:49;22.38;;;20.73;;
9005;SDS011;62284;50.702;7.140;2022-08-19T07:31:18;20.80;;;19.30;;
9005;SDS011;62284;50.702;7.140;2022-08-19T07:33:47;24.95;;;22.85;;
9005;SDS011;62284;50.702;7.140;2022-08-19T07:36:18;22.95;;;21.25;;
9005;SDS011;62284;50.702;7.140;2022-08-19T07:38:48;21.42;;;19.77;;
9005;SDS011;62284;50.702;7.140;2022-08-19T07:41:18;20.15;;;18.58;;
9005;SDS011;62284;50.702;7.140;2022-08-19T07:43:46;22.15;;;20.42;;
9005;SDS011;62284;50.702;7.140;2022-08-19T07:46:14;23.23;;;21.42;;
9005;SDS011;62284;50.702;7.140;2022-08-19T07:48:43;21.23;;;19.73;;
9005;SDS011;62284;50.702;7.140;2022-08-19T07:51:12;23.63;;;21.95;;
9005;SDS011;62284;50.702;7.140;2022-08-19T07:53:41;21.33;;;19.52;;
9005;SDS011;62284;50.702;7.140;2022-08-19T07:56:10;22.23;;;20.60;;
9005;SDS011;62284;50.702;7.140;2022-08-19T07:58:38;19.85;;;18.38;;
9005;SDS011;62284;50.702;7.140;2022-08-19T08:01:08;18.80;;;17.35;;
9005;SDS011;62284;50.702;7.140;2022-08-19T08:03:38;18.95;;;17.45;;
9005;SDS011;62284;50.702;7.140;2022-08-19T08:06:23;21.00;;;19.30;;
9005;SDS011;62284;50.702;7.140;2022-08-19T08:09:10;18.50;;;17.08;;
9005;SDS011;62284;50.702;7.140;2022-08-19T08:11:42;17.20;;;15.85;;
9005;SDS011;62284;50.702;7.140;2022-08-19T08:14:14;17.00;;;15.70;;
9005;SDS011;62284;50.702;7.140;2022-08-19T08:16:41;17.55;;;16.17;;
9005;SDS011;62284;50.702;7.140;2022-08-19T08:19:10;17.67;;;16.27;;
9005;SDS011;62284;50.702;7.140;2022-08-19T08:21:40;17.85;;;16.45;;
9005;SDS011;62284;50.702;7.140;2022-08-19T08:24:07;16.83;;;15.52;;
9005;SDS011;62284;50.702;7.140;2022-08-19T08:26:36;20.13;;;18.70;;
9005;SDS011;62284;50.702;7.140;2022-08-19T08:29:03;17.17;;;15.77;;
9005;SDS011;62284;50.702;7.140;2022-08-19T08:31:30;16.80;;;15.52;;
9005;SDS011;62284;50.702;7.140;2022-08-19T08:33:57;16.83;;;15.30;;
9005;SDS011;62284;50.702;7.140;2022-08-19T08:36:24;14.20;;;13.10;;
9005;SDS011;62284;50.702;7.140;2022-08-19T08:38:52;15.13;;;14.02;;
9005;SDS011;62284;50.702;7.140;2022-08-19T08:41:22;14.18;;;12.93;;
9005;SDS011;62284;50.702;7.140;2022-08-19T08:43:56;12.30;;;11.23;;
9005;SDS011;62284;50.702;7.140;2022-08-19T08:46:24;13.50;;;12.40;;
9005;SDS011;62284;50.702;7.140;2022-08-19T08:48:57;12.45;;;11.57;;
9005;SDS011;62284;50.702;7.140;2022-08-19T08:51:33;13.93;;;12.82;;
9005;SDS011;62284;50.702;7.140;2022-08-19T08:54:04;13.13;;;12.13;;
9005;SDS011;62284;50.702;7.140;2022-08-19T08:56:32;13.93;;;12.75;;
9005;SDS011;62284;50.702;7.140;2022-08-19T08:59:02;14.52;;;13.32;;
9005;SDS011;62284;50.702;7.140;2022-08-19T09:01:33;14.32;;;13.23;;
9005;SDS011;62284;50.702;7.140;2022-08-19T09:04:02;15.02;;;13.93;;
9005;SDS011;62284;50.702;7.140;2022-08-19T09:06:32;11.82;;;11.00;;
9005;SDS011;62284;50.702;7.140;2022-08-19T09:09:09;11.40;;;10.50;;
9005;SDS011;62284;50.702;7.140;2022-08-19T09:11:45;12.38;;;11.40;;
9005;SDS011;62284;50.702;7.140;2022-08-19T09:14:28;13.82;;;12.73;;
9005;SDS011;62284;50.702;7.140;2022-08-19T09:17:06;14.25;;;13.15;;
9005;SDS011;62284;50.702;7.140;2022-08-19T09:19:34;12.55;;;11.52;;
9005;SDS011;62284;50.702;7.140;2022-08-19T09:22:02;12.60;;;11.60;;
9005;SDS011;62284;50.702;7.140;2022-08-19T09:24:30;11.70;;;10.80;;
9005;SDS011;62284;50.702;7.140;2022-08-19T09:26:57;9.63;;;8.82;;
9005;SDS011;62284;50.702;7.140;2022-08-19T09:29:25;11.77;;;10.77;;
9005;SDS011;62284;50.702;7.140;2022-08-19T09:31:52;17.27;;;15.85;;
9005;SDS011;62284;50.702;7.140;2022-08-19T09:34:19;14.38;;;13.38;;
9005;SDS011;62284;50.702;7.140;2022-08-19T09:36:46;17.95;;;16.13;;
9005;SDS011;62284;50.702;7.140;2022-08-19T09:39:14;16.23;;;14.82;;
9005;SDS011;62284;50.702;7.140;2022-08-19T09:41:41;17.10;;;15.60;;
9005;SDS011;62284;50.702;7.140;2022-08-19T09:44:08;17.02;;;15.60;;
9005;SDS011;62284;50.702;7.140;2022-08-19T09:46:37;14.23;;;12.70;;
9005;SDS011;62284;50.702;7.140;2022-08-19T09:49:07;15.23;;;14.07;;
9005;SDS011;62284;50.702;7.140;2022-08-19T09:51:34;15.95;;;14.68;;
9005;SDS011;62284;50.702;7.140;2022-08-19T09:54:02;18.98;;;17.38;;
9005;SDS011;62284;50.702;7.140;2022-08-19T09:56:29;17.33;;;15.93;;
9005;SDS011;62284;50.702;7.140;2022-08-19T09:58:57;13.02;;;12.02;;
9005;SDS011;62284;50.702;7.140;2022-08-19T10:01:26;17.30;;;15.90;;
9005;SDS011;62284;50.702;7.140;2022-08-19T10:03:56;13.95;;;12.90;;
9005;SDS011;62284;50.702;7.140;2022-08-19T10:06:25;16.27;;;14.90;;
9005;SDS011;62284;50.702;7.140;2022-08-19T10:08:58;16.75;;;15.35;;
9005;SDS011;62284;50.702;7.140;2022-08-19T10:11:25;16.55;;;15.20;;
9005;SDS011;62284;50.702;7.140;2022-08-19T10:13:54;20.73;;;18.95;;
9005;SDS011;62284;50.702;7.140;2022-08-19T10:16:22;17.52;;;16.23;;
9005;SDS011;62284;50.702;7.140;2022-08-19T10:18:50;16.27;;;14.98;;
9005;SDS011;62284;50.702;7.140;2022-08-19T10:21:21;15.35;;;14.10;;
9005;SDS011;62284;50.702;7.140;2022-08-19T10:23:51;16.45;;;15.15;;
9005;SDS011;62284;50.702;7.140;2022-08-19T10:26:23;15.35;;;14.18;;
9005;SDS011;62284;50.702;7.140;2022-08-19T10:28:52;14.25;;;13.15;;
9005;SDS011;62284;50.702;7.140;2022-08-19T10:31:20;13.32;;;12.20;;
9005;SDS011;62284;50.702;7.140;2022-08-19T10:33:50;13.27;;;12.32;;
9005;SDS011;62284;50.702;7.140;2022-08-19T10:36:22;14.88;;;13.85;;
9005;SDS011;62284;50.702;7.140;2022-08-19T10:38:51;13.25;;;12.35;;
9005;SDS011;62284;50.702;7.140;2022-08-19T10:41:23;11.13;;;10.23;;
9005;SDS011;62284;50.702;7.140;2022-08-19T10:43:52;11.20;;;10.35;;
9005;SDS011;62284;50.702;7.140;2022-08-19T10:46:21;9.25;;;8.55;;
9005;SDS011;62284;50.702;7.140;2022-08-19T10:48:50;11.15;;;10.32;;
9005;SDS011;62284;50.702;7.140;2022-08-19T10:51:17;9.73;;;9.02;;
9005;SDS011;62284;50.702;7.140;2022-08-19T10:54:02;11.82;;;10.75;;
9005;SDS011;62284;50.702;7.140;2022-08-19T10:56:30;12.57;;;11.63;;
9005;SDS011;62284;50.702;7.140;2022-08-19T10:59:16;12.25;;;11.35;;
9005;SDS011;62284;50.702;7.140;2022-08-19T11:01:45;9.52;;;8.73;;
9005;SDS011;62284;50.702;7.140;2022-08-19T11:04:13;11.60;;;10.80;;
9005;SDS011;62284;50.702;7.140;2022-08-19T11:06:42;11.00;;;10.10;;
9005;SDS011;62284;50.702;7.140;2022-08-19T11:09:13;13.18;;;12.20;;
9005;SDS011;62284;50.702;7.140;2022-08-19T11:11:40;10.52;;;9.57;;
9005;SDS011;62284;50.702;7.140;2022-08-19T11:14:08;11.13;;;9.90;;
9005;SDS011;62284;50.702;7.140;2022-08-19T11:16:36;8.48;;;7.70;;
9005;SDS011;62284;50.702;7.140;2022-08-19T11:19:04;8.27;;;7.78;;
9005;SDS011;62284;50.702;7.140;2022-08-19T11:21:33;8.25;;;7.65;;
9005;SDS011;62284;50.702;7.140;2022-08-19T11:24:02;7.13;;;6.63;;
9005;SDS011;62284;50.702;7.140;2022-08-19T11:26:34;7.05;;;6.45;;
9005;SDS011;62284;50.702;7.140;2022-08-19T11:29:02;7.25;;;6.55;;
9005;SDS011;62284;50.702;7.140;2022-08-19T11:31:32;7.15;;;6.45;;
9005;SDS011;62284;50.702;7.140;2022-08-19T11:34:02;6.30;;;5.78;;
9005;SDS011;62284;50.702;7.140;2022-08-19T11:36:31;5.50;;;5.03;;
9005;SDS011;62284;50.702;7.140;2022-08-19T11:38:59;5.88;;;5.20;;
9005;SDS011;62284;50.702;7.140;2022-08-19T11:41:26;5.25;;;4.95;;
9005;SDS011;62284;50.702;7.140;2022-08-19T11:43:55;4.90;;;4.50;;
9005;SDS011;62284;50.702;7.140;2022-08-19T11:46:22;5.50;;;5.10;;
9005;SDS011;62284;50.702;7.140;2022-08-19T11:48:51;4.63;;;4.22;;
9005;SDS011;62284;50.702;7.140;2022-08-19T11:51:19;4.85;;;4.55;;
9005;SDS011;62284;50.702;7.140;2022-08-19T11:53:49;4.68;;;4.30;;
9005;SDS011;62284;50.702;7.140;2022-08-19T11:56:17;4.95;;;4.15;;
9005;SDS011;62284;50.702;7.140;2022-08-19T11:58:45;5.05;;;4.70;;
9005;SDS011;62284;50.702;7.140;2022-08-19T12:01:15;4.47;;;4.18;;
9005;SDS011;62284;50.702;7.140;2022-08-19T12:03:44;4.95;;;4.45;;
9005;SDS011;62284;50.702;7.140;2022-08-19T12:06:15;5.00;;;4.60;;
9005;SDS011;62284;50.702;7.140;2022-08-19T12:08:43;5.85;;;5.35;;
9005;SDS011;62284;50.702;7.140;2022-08-19T12:11:11;5.60;;;5.20;;
9005;SDS011;62284;50.702;7.140;2022-08-19T12:13:39;5.13;;;4.72;;
9005;SDS011;62284;50.702;7.140;2022-08-19T12:16:12;6.80;;;6.30;;
9005;SDS011;62284;50.702;7.140;2022-08-19T12:18:42;6.43;;;5.93;;
9005;SDS011;62284;50.702;7.140;2022-08-19T12:21:11;5.32;;;4.93;;
9005;SDS011;62284;50.702;7.140;2022-08-19T12:23:39;7.00;;;5.97;;
9005;SDS011;62284;50.702;7.140;2022-08-19T12:26:06;5.55;;;5.15;;
9005;SDS011;62284;50.702;7.140;2022-08-19T12:28:34;5.70;;;5.30;;
9005;SDS011;62284;50.702;7.140;2022-08-19T12:31:01;5.78;;;5.38;;
9005;SDS011;62284;50.702;7.140;2022-08-19T12:33:30;6.53;;;6.03;;
9005;SDS011;62284;50.702;7.140;2022-08-19T12:35:59;7.50;;;6.90;;
9005;SDS011;62284;50.702;7.140;2022-08-19T12:38:28;6.03;;;5.45;;
9005;SDS011;62284;50.702;7.140;2022-08-19T12:40:55;6.30;;;5.70;;
9005;SDS011;62284;50.702;7.140;2022-08-19T12:43:22;5.65;;;5.25;;
9005;SDS011;62284;50.702;7.140;2022-08-19T12:45:49;6.35;;;5.95;;
9005;SDS011;62284;50.702;7.140;2022-08-19T12:48:17;5.60;;;5.20;;
9005;SDS011;62284;50.702;7.140;2022-08-19T12:50:45;6.10;;;5.65;;
9005;SDS011;62284;50.702;7.140;2022-08-19T12:53:12;6.18;;;5.78;;
9005;SDS011;62284;50.702;7.140;2022-08-19T12:55:39;7.53;;;6.82;;
9005;SDS011;62284;50.702;7.140;2022-08-19T12:58:07;5.85;;;5.35;;
9005;SDS011;62284;50.702;7.140;2022-08-19T13:00:34;7.72;;;7.22;;
9005;SDS011;62284;50.702;7.140;2022-08-19T13:03:01;6.60;;;6.10;;
9005;SDS011;62284;50.702;7.140;2022-08-19T13:05:29;6.68;;;6.22;;
9005;SDS011;62284;50.702;7.140;2022-08-19T13:07:59;7.32;;;6.82;;
9005;SDS011;62284;50.702;7.140;2022-08-19T13:10:27;7.43;;;6.93;;
9005;SDS011;62284;50.702;7.140;2022-08-19T13:12:56;7.35;;;6.85;;
9005;SDS011;62284;50.702;7.140;2022-08-19T13:15:24;6.53;;;6.13;;
9005;SDS011;62284;50.702;7.140;2022-08-19T13:17:53;7.28;;;6.68;;
9005;SDS011;62284;50.702;7.140;2022-08-19T13:20:21;6.75;;;6.15;;
9005;SDS011;62284;50.702;7.140;2022-08-19T13:22:48;7.63;;;7.03;;
9005;SDS011;62284;50.702;7.140;2022-08-19T13:25:18;6.80;;;6.30;;
9005;SDS011;62284;50.702;7.140;2022-08-19T13:27:45;6.90;;;6.40;;
9005;SDS011;62284;50.702;7.140;2022-08-19T13:30:13;7.75;;;7.25;;
9005;SDS011;62284;50.702;7.140;2022-08-19T13:32:59;6.55;;;6.15;;
9005;SDS011;62284;50.702;7.140;2022-08-19T13:35:39;5.80;;;5.30;;
9005;SDS011;62284;50.702;7.140;2022-08-19T13:38:08;6.50;;;6.10;;
9005;SDS011;62284;50.702;7.140;2022-08-19T13:40:37;5.80;;;5.30;;
9005;SDS011;62284;50.702;7.140;2022-08-19T13:43:05;6.80;;;6.20;;
9005;SDS011;62284;50.702;7.140;2022-08-19T13:45:33;6.10;;;5.60;;
9005;SDS011;62284;50.702;7.140;2022-08-19T13:48:00;6.63;;;6.13;;
9005;SDS011;62284;50.702;7.140;2022-08-19T13:50:32;5.53;;;5.13;;
9005;SDS011;62284;50.702;7.140;2022-08-19T13:53:00;5.85;;;5.35;;
9005;SDS011;62284;50.702;7.140;2022-08-19T13:55:28;6.15;;;5.63;;
9005;SDS011;62284;50.702;7.140;2022-08-19T13:57:57;6.78;;;6.18;;
9005;SDS011;62284;50.702;7.140;2022-08-19T14:00:27;7.35;;;6.85;;
9005;SDS011;62284;50.702;7.140;2022-08-19T14:02:56;7.55;;;7.00;;
9005;SDS011;62284;50.702;7.140;2022-08-19T14:05:24;7.30;;;6.70;;
9005;SDS011;62284;50.702;7.140;2022-08-19T14:07:52;6.07;;;5.47;;
9005;SDS011;62284;50.702;7.140;2022-08-19T14:10:20;6.40;;;5.90;;
9005;SDS011;62284;50.702;7.140;2022-08-19T14:12:48;5.72;;;5.30;;
9005;SDS011;62284;50.702;7.140;2022-08-19T14:15:17;6.95;;;6.45;;
9005;SDS011;62284;50.702;7.140;2022-08-19T14:17:44;6.47;;;5.97;;
9005;SDS011;62284;50.702;7.140;2022-08-19T14:20:13;6.10;;;5.50;;
9005;SDS011;62284;50.702;7.140;2022-08-19T14:22:41;6.15;;;5.60;;
9005;SDS011;62284;50.702;7.140;2022-08-19T14:25:10;5.13;;;4.82;;
9005;SDS011;62284;50.702;7.140;2022-08-19T14:27:39;5.45;;;5.05;;
9005;SDS011;62284;50.702;7.140;2022-08-19T14:30:07;5.38;;;4.97;;
9005;SDS011;62284;50.702;7.140;2022-08-19T14:32:37;4.97;;;4.68;;
9005;SDS011;62284;50.702;7.140;2022-08-19T14:35:04;6.75;;;6.15;;
9005;SDS011;62284;50.702;7.140;2022-08-19T14:37:33;5.70;;;5.30;;
9005;SDS011;62284;50.702;7.140;2022-08-19T14:40:00;5.72;;;5.32;;
9005;SDS011;62284;50.702;7.140;2022-08-19T14:42:27;7.13;;;6.53;;
9005;SDS011;62284;50.702;7.140;2022-08-19T14:44:56;6.53;;;6.03;;
9005;SDS011;62284;50.702;7.140;2022-08-19T14:47:24;6.72;;;6.22;;
9005;SDS011;62284;50.702;7.140;2022-08-19T14:49:53;6.50;;;6.00;;
9005;SDS011;62284;50.702;7.140;2022-08-19T14:52:20;7.18;;;5.85;;
9005;SDS011;62284;50.702;7.140;2022-08-19T14:54:47;6.57;;;5.80;;
9005;SDS011;62284;50.702;7.140;2022-08-19T14:57:14;5.60;;;5.22;;
9005;SDS011;62284;50.702;7.140;2022-08-19T14:59:41;5.65;;;5.25;;
9005;SDS011;62284;50.702;7.140;2022-08-19T15:02:08;6.07;;;5.57;;
9005;SDS011;62284;50.702;7.140;2022-08-19T15:04:36;6.25;;;5.75;;